Terminal Aerodrome Forecast
Issued by NWS

Home | Current Version | Previous Version | Text Only | Print | Product List | Glossary On
Versions: 1 2 3 4 5 6 7 8 9 10 11 12 13 14
000
FTUS46 KSEW 230526
TAFPAE
TAF
KPAE 230526Z 2306/2406 32005KT P6SM SCT045
     FM230700 36005KT P6SM SCT030 OVC045
     FM231100 35003KT 5SM BR SCT004 BKN008
     FM231900 35006KT P6SM FEW010 BKN025
     FM232300 36006KT P6SM SCT035=

USA.gov is the U.S. government's official web portal to all federal, state and local government web resources and services.